sensor_id;sensor_type;location;lat;lon;timestamp;P1;durP1;ratioP1;P2;durP2;ratioP2
29730;SDS011;16639;51.488;0.152;2023-06-14T00:01:02;8.82;;;3.40;;
29730;SDS011;16639;51.488;0.152;2023-06-14T00:03:32;14.60;;;3.80;;
29730;SDS011;16639;51.488;0.152;2023-06-14T00:06:00;10.40;;;3.20;;
29730;SDS011;16639;51.488;0.152;2023-06-14T00:08:27;12.77;;;3.47;;
29730;SDS011;16639;51.488;0.152;2023-06-14T00:10:55;8.07;;;2.83;;
29730;SDS011;16639;51.488;0.152;2023-06-14T00:13:22;5.53;;;3.15;;
29730;SDS011;16639;51.488;0.152;2023-06-14T00:15:50;11.05;;;3.53;;
29730;SDS011;16639;51.488;0.152;2023-06-14T00:18:22;5.80;;;2.70;;
29730;SDS011;16639;51.488;0.152;2023-06-14T00:20:53;9.02;;;3.55;;
29730;SDS011;16639;51.488;0.152;2023-06-14T00:23:20;9.30;;;3.70;;
29730;SDS011;16639;51.488;0.152;2023-06-14T00:25:48;9.73;;;3.90;;
29730;SDS011;16639;51.488;0.152;2023-06-14T00:28:15;9.30;;;3.00;;
29730;SDS011;16639;51.488;0.152;2023-06-14T00:30:43;5.78;;;3.30;;
29730;SDS011;16639;51.488;0.152;2023-06-14T00:33:13;10.02;;;3.55;;
29730;SDS011;16639;51.488;0.152;2023-06-14T00:35:41;8.05;;;3.47;;
29730;SDS011;16639;51.488;0.152;2023-06-14T00:38:08;13.75;;;4.30;;
29730;SDS011;16639;51.488;0.152;2023-06-14T00:40:36;8.52;;;3.58;;
29730;SDS011;16639;51.488;0.152;2023-06-14T00:43:03;10.63;;;3.33;;
29730;SDS011;16639;51.488;0.152;2023-06-14T00:45:31;9.90;;;3.28;;
29730;SDS011;16639;51.488;0.152;2023-06-14T00:48:02;11.15;;;3.28;;
29730;SDS011;16639;51.488;0.152;2023-06-14T00:50:33;8.50;;;3.63;;
29730;SDS011;16639;51.488;0.152;2023-06-14T00:53:01;13.25;;;5.07;;
29730;SDS011;16639;51.488;0.152;2023-06-14T00:55:29;10.60;;;4.18;;
29730;SDS011;16639;51.488;0.152;2023-06-14T01:18:50;13.70;;;4.30;;
29730;SDS011;16639;51.488;0.152;2023-06-14T01:22:12;12.75;;;3.75;;
29730;SDS011;16639;51.488;0.152;2023-06-14T01:33:03;20.77;;;4.38;;
29730;SDS011;16639;51.488;0.152;2023-06-14T01:36:16;8.40;;;3.30;;
29730;SDS011;16639;51.488;0.152;2023-06-14T01:39:14;14.70;;;4.55;;
29730;SDS011;16639;51.488;0.152;2023-06-14T02:09:33;11.88;;;4.63;;
29730;SDS011;16639;51.488;0.152;2023-06-14T02:22:50;16.80;;;5.88;;
29730;SDS011;16639;51.488;0.152;2023-06-14T02:30:37;13.18;;;4.60;;
29730;SDS011;16639;51.488;0.152;2023-06-14T02:41:46;29.73;;;10.07;;
29730;SDS011;16639;51.488;0.152;2023-06-14T02:57:57;26.77;;;10.48;;
29730;SDS011;16639;51.488;0.152;2023-06-14T03:01:26;18.58;;;6.88;;
29730;SDS011;16639;51.488;0.152;2023-06-14T03:05:08;14.82;;;6.28;;
29730;SDS011;16639;51.488;0.152;2023-06-14T03:12:04;17.02;;;6.22;;
29730;SDS011;16639;51.488;0.152;2023-06-14T03:15:30;13.88;;;5.45;;
29730;SDS011;16639;51.488;0.152;2023-06-14T03:36:55;19.75;;;5.93;;
29730;SDS011;16639;51.488;0.152;2023-06-14T04:21:01;10.98;;;5.65;;
29730;SDS011;16639;51.488;0.152;2023-06-14T04:23:29;20.27;;;6.35;;
29730;SDS011;16639;51.488;0.152;2023-06-14T04:25:57;15.13;;;6.18;;
29730;SDS011;16639;51.488;0.152;2023-06-14T04:28:28;14.77;;;6.20;;
29730;SDS011;16639;51.488;0.152;2023-06-14T04:30:57;12.23;;;5.93;;
29730;SDS011;16639;51.488;0.152;2023-06-14T04:33:28;14.18;;;6.13;;
29730;SDS011;16639;51.488;0.152;2023-06-14T04:35:56;25.50;;;7.50;;
29730;SDS011;16639;51.488;0.152;2023-06-14T04:38:23;14.68;;;6.15;;
29730;SDS011;16639;51.488;0.152;2023-06-14T04:40:52;12.18;;;7.07;;
29730;SDS011;16639;51.488;0.152;2023-06-14T04:43:19;13.65;;;6.78;;
29730;SDS011;16639;51.488;0.152;2023-06-14T04:45:54;15.85;;;7.32;;
29730;SDS011;16639;51.488;0.152;2023-06-14T04:48:23;13.60;;;7.55;;
29730;SDS011;16639;51.488;0.152;2023-06-14T04:50:51;18.60;;;7.72;;
29730;SDS011;16639;51.488;0.152;2023-06-14T04:53:20;19.00;;;6.97;;
29730;SDS011;16639;51.488;0.152;2023-06-14T04:55:49;16.10;;;7.60;;
29730;SDS011;16639;51.488;0.152;2023-06-14T04:58:17;28.90;;;6.97;;
29730;SDS011;16639;51.488;0.152;2023-06-14T05:00:44;17.88;;;7.38;;
29730;SDS011;16639;51.488;0.152;2023-06-14T05:03:12;11.75;;;6.82;;
29730;SDS011;16639;51.488;0.152;2023-06-14T05:05:40;18.27;;;7.00;;
29730;SDS011;16639;51.488;0.152;2023-06-14T05:08:08;21.73;;;7.88;;
29730;SDS011;16639;51.488;0.152;2023-06-14T05:10:36;21.80;;;7.15;;
29730;SDS011;16639;51.488;0.152;2023-06-14T05:13:04;20.13;;;7.47;;
29730;SDS011;16639;51.488;0.152;2023-06-14T05:15:31;15.02;;;7.45;;
29730;SDS011;16639;51.488;0.152;2023-06-14T05:17:59;23.02;;;7.10;;
29730;SDS011;16639;51.488;0.152;2023-06-14T05:20:26;15.15;;;7.13;;
29730;SDS011;16639;51.488;0.152;2023-06-14T05:22:54;16.23;;;6.72;;
29730;SDS011;16639;51.488;0.152;2023-06-14T05:25:23;15.05;;;6.72;;
29730;SDS011;16639;51.488;0.152;2023-06-14T05:27:51;17.52;;;6.93;;
29730;SDS011;16639;51.488;0.152;2023-06-14T05:30:18;20.88;;;6.90;;
29730;SDS011;16639;51.488;0.152;2023-06-14T05:32:46;20.45;;;7.40;;
29730;SDS011;16639;51.488;0.152;2023-06-14T05:35:13;21.48;;;7.38;;
29730;SDS011;16639;51.488;0.152;2023-06-14T05:37:42;14.93;;;6.30;;
29730;SDS011;16639;51.488;0.152;2023-06-14T05:40:09;15.02;;;6.82;;
29730;SDS011;16639;51.488;0.152;2023-06-14T05:42:37;16.58;;;7.15;;
29730;SDS011;16639;51.488;0.152;2023-06-14T05:45:05;16.02;;;8.20;;
29730;SDS011;16639;51.488;0.152;2023-06-14T05:47:33;18.70;;;7.53;;
29730;SDS011;16639;51.488;0.152;2023-06-14T05:50:00;17.17;;;7.80;;
29730;SDS011;16639;51.488;0.152;2023-06-14T05:52:28;17.42;;;6.43;;
29730;SDS011;16639;51.488;0.152;2023-06-14T05:54:56;22.00;;;7.72;;
29730;SDS011;16639;51.488;0.152;2023-06-14T05:57:23;17.10;;;7.25;;
29730;SDS011;16639;51.488;0.152;2023-06-14T05:59:51;12.98;;;6.50;;
29730;SDS011;16639;51.488;0.152;2023-06-14T06:02:18;20.60;;;7.88;;
29730;SDS011;16639;51.488;0.152;2023-06-14T06:04:45;16.02;;;6.78;;
29730;SDS011;16639;51.488;0.152;2023-06-14T06:07:13;15.02;;;7.38;;
29730;SDS011;16639;51.488;0.152;2023-06-14T06:09:40;17.08;;;7.30;;
29730;SDS011;16639;51.488;0.152;2023-06-14T06:12:15;26.73;;;7.38;;
29730;SDS011;16639;51.488;0.152;2023-06-14T06:15:09;16.25;;;6.85;;
29730;SDS011;16639;51.488;0.152;2023-06-14T06:17:40;20.33;;;8.18;;
29730;SDS011;16639;51.488;0.152;2023-06-14T06:20:22;18.95;;;6.93;;
29730;SDS011;16639;51.488;0.152;2023-06-14T06:22:55;16.38;;;6.85;;
29730;SDS011;16639;51.488;0.152;2023-06-14T06:25:24;19.10;;;8.07;;
29730;SDS011;16639;51.488;0.152;2023-06-14T06:27:54;19.25;;;7.63;;
29730;SDS011;16639;51.488;0.152;2023-06-14T06:30:23;23.02;;;7.60;;
29730;SDS011;16639;51.488;0.152;2023-06-14T06:32:51;12.38;;;5.90;;
29730;SDS011;16639;51.488;0.152;2023-06-14T06:35:20;16.45;;;6.68;;
29730;SDS011;16639;51.488;0.152;2023-06-14T06:37:47;16.98;;;6.97;;
29730;SDS011;16639;51.488;0.152;2023-06-14T06:40:15;25.42;;;7.90;;
29730;SDS011;16639;51.488;0.152;2023-06-14T06:42:42;19.15;;;7.00;;
29730;SDS011;16639;51.488;0.152;2023-06-14T06:45:10;29.95;;;8.63;;
29730;SDS011;16639;51.488;0.152;2023-06-14T06:47:37;22.23;;;8.20;;
29730;SDS011;16639;51.488;0.152;2023-06-14T06:50:05;25.50;;;7.95;;
29730;SDS011;16639;51.488;0.152;2023-06-14T06:52:34;18.45;;;9.65;;
29730;SDS011;16639;51.488;0.152;2023-06-14T06:55:02;21.13;;;7.53;;
29730;SDS011;16639;51.488;0.152;2023-06-14T06:57:30;17.70;;;7.47;;
29730;SDS011;16639;51.488;0.152;2023-06-14T06:59:57;29.85;;;7.75;;
29730;SDS011;16639;51.488;0.152;2023-06-14T07:02:25;26.33;;;9.25;;
29730;SDS011;16639;51.488;0.152;2023-06-14T07:04:52;20.48;;;7.30;;
29730;SDS011;16639;51.488;0.152;2023-06-14T07:07:19;16.30;;;7.05;;
29730;SDS011;16639;51.488;0.152;2023-06-14T07:09:47;13.25;;;7.13;;
29730;SDS011;16639;51.488;0.152;2023-06-14T07:12:14;19.00;;;7.10;;
29730;SDS011;16639;51.488;0.152;2023-06-14T07:14:42;17.85;;;6.78;;
29730;SDS011;16639;51.488;0.152;2023-06-14T07:17:09;12.50;;;6.43;;
29730;SDS011;16639;51.488;0.152;2023-06-14T07:19:37;25.02;;;8.70;;
29730;SDS011;16639;51.488;0.152;2023-06-14T07:22:04;28.75;;;8.55;;
29730;SDS011;16639;51.488;0.152;2023-06-14T07:24:32;21.95;;;7.43;;
29730;SDS011;16639;51.488;0.152;2023-06-14T07:26:59;26.48;;;8.43;;
29730;SDS011;16639;51.488;0.152;2023-06-14T07:29:27;21.92;;;7.55;;
29730;SDS011;16639;51.488;0.152;2023-06-14T07:31:55;25.17;;;8.90;;
29730;SDS011;16639;51.488;0.152;2023-06-14T07:34:22;18.65;;;8.13;;
29730;SDS011;16639;51.488;0.152;2023-06-14T07:36:50;18.85;;;6.85;;
29730;SDS011;16639;51.488;0.152;2023-06-14T07:39:18;23.90;;;8.95;;
29730;SDS011;16639;51.488;0.152;2023-06-14T07:41:46;27.58;;;8.00;;
29730;SDS011;16639;51.488;0.152;2023-06-14T07:44:13;27.90;;;8.52;;
29730;SDS011;16639;51.488;0.152;2023-06-14T07:46:40;16.05;;;7.85;;
29730;SDS011;16639;51.488;0.152;2023-06-14T07:49:08;13.88;;;6.55;;
29730;SDS011;16639;51.488;0.152;2023-06-14T07:51:38;19.20;;;8.77;;
29730;SDS011;16639;51.488;0.152;2023-06-14T07:54:06;19.70;;;7.18;;
29730;SDS011;16639;51.488;0.152;2023-06-14T07:56:35;19.33;;;6.93;;
29730;SDS011;16639;51.488;0.152;2023-06-14T07:59:03;29.58;;;7.60;;
29730;SDS011;16639;51.488;0.152;2023-06-14T08:01:30;16.50;;;7.38;;
29730;SDS011;16639;51.488;0.152;2023-06-14T08:03:58;18.65;;;7.82;;
29730;SDS011;16639;51.488;0.152;2023-06-14T08:06:26;15.98;;;7.55;;
29730;SDS011;16639;51.488;0.152;2023-06-14T08:08:53;19.85;;;8.23;;
29730;SDS011;16639;51.488;0.152;2023-06-14T08:11:21;18.02;;;8.45;;
29730;SDS011;16639;51.488;0.152;2023-06-14T08:13:51;12.52;;;6.80;;
29730;SDS011;16639;51.488;0.152;2023-06-14T08:16:18;20.83;;;6.75;;
29730;SDS011;16639;51.488;0.152;2023-06-14T08:18:46;27.58;;;8.00;;
29730;SDS011;16639;51.488;0.152;2023-06-14T08:21:13;14.10;;;5.72;;
29730;SDS011;16639;51.488;0.152;2023-06-14T08:23:41;12.93;;;6.78;;
29730;SDS011;16639;51.488;0.152;2023-06-14T08:26:09;20.05;;;6.75;;
29730;SDS011;16639;51.488;0.152;2023-06-14T08:28:37;26.10;;;8.43;;
29730;SDS011;16639;51.488;0.152;2023-06-14T08:31:05;29.98;;;9.43;;
29730;SDS011;16639;51.488;0.152;2023-06-14T08:33:32;26.23;;;9.43;;
29730;SDS011;16639;51.488;0.152;2023-06-14T08:36:00;20.60;;;6.68;;
29730;SDS011;16639;51.488;0.152;2023-06-14T08:38:28;18.85;;;7.53;;
29730;SDS011;16639;51.488;0.152;2023-06-14T08:40:56;20.17;;;7.88;;
29730;SDS011;16639;51.488;0.152;2023-06-14T08:43:25;19.90;;;8.52;;
29730;SDS011;16639;51.488;0.152;2023-06-14T08:45:54;23.02;;;8.15;;
29730;SDS011;16639;51.488;0.152;2023-06-14T08:48:26;18.00;;;7.95;;
29730;SDS011;16639;51.488;0.152;2023-06-14T08:50:54;15.93;;;7.50;;
29730;SDS011;16639;51.488;0.152;2023-06-14T08:53:32;18.27;;;7.77;;
29730;SDS011;16639;51.488;0.152;2023-06-14T08:56:04;12.00;;;6.15;;
29730;SDS011;16639;51.488;0.152;2023-06-14T08:58:34;18.75;;;7.72;;
29730;SDS011;16639;51.488;0.152;2023-06-14T09:01:02;19.02;;;7.05;;
29730;SDS011;16639;51.488;0.152;2023-06-14T09:03:32;13.07;;;6.15;;
29730;SDS011;16639;51.488;0.152;2023-06-14T09:06:00;16.63;;;7.60;;
29730;SDS011;16639;51.488;0.152;2023-06-14T09:08:28;26.75;;;8.35;;
29730;SDS011;16639;51.488;0.152;2023-06-14T09:10:57;16.10;;;7.43;;
29730;SDS011;16639;51.488;0.152;2023-06-14T09:13:26;12.98;;;6.35;;
29730;SDS011;16639;51.488;0.152;2023-06-14T09:15:57;17.17;;;8.38;;
29730;SDS011;16639;51.488;0.152;2023-06-14T09:18:33;18.65;;;6.82;;
29730;SDS011;16639;51.488;0.152;2023-06-14T09:21:02;18.48;;;8.00;;
29730;SDS011;16639;51.488;0.152;2023-06-14T09:23:29;17.85;;;7.63;;
29730;SDS011;16639;51.488;0.152;2023-06-14T09:26:10;17.58;;;7.28;;
29730;SDS011;16639;51.488;0.152;2023-06-14T09:28:43;17.30;;;7.18;;
29730;SDS011;16639;51.488;0.152;2023-06-14T09:31:11;17.85;;;8.02;;
29730;SDS011;16639;51.488;0.152;2023-06-14T09:33:50;22.13;;;8.65;;
29730;SDS011;16639;51.488;0.152;2023-06-14T09:36:18;22.02;;;8.57;;
29730;SDS011;16639;51.488;0.152;2023-06-14T09:38:59;23.42;;;7.32;;
29730;SDS011;16639;51.488;0.152;2023-06-14T09:44:07;19.20;;;7.50;;
29730;SDS011;16639;51.488;0.152;2023-06-14T09:46:41;18.95;;;8.18;;
29730;SDS011;16639;51.488;0.152;2023-06-14T09:49:09;18.35;;;7.60;;
29730;SDS011;16639;51.488;0.152;2023-06-14T09:51:41;12.20;;;7.35;;
29730;SDS011;16639;51.488;0.152;2023-06-14T09:54:14;18.75;;;8.13;;
29730;SDS011;16639;51.488;0.152;2023-06-14T09:56:46;16.13;;;6.55;;
29730;SDS011;16639;51.488;0.152;2023-06-14T09:59:19;24.67;;;8.27;;
29730;SDS011;16639;51.488;0.152;2023-06-14T10:01:53;15.48;;;7.07;;
29730;SDS011;16639;51.488;0.152;2023-06-14T10:04:25;17.50;;;7.75;;
29730;SDS011;16639;51.488;0.152;2023-06-14T10:06:54;17.70;;;7.53;;
29730;SDS011;16639;51.488;0.152;2023-06-14T10:09:21;25.10;;;10.65;;
29730;SDS011;16639;51.488;0.152;2023-06-14T10:11:49;23.73;;;10.38;;
29730;SDS011;16639;51.488;0.152;2023-06-14T10:14:17;20.88;;;9.13;;
29730;SDS011;16639;51.488;0.152;2023-06-14T10:17:03;15.07;;;9.18;;
29730;SDS011;16639;51.488;0.152;2023-06-14T10:19:48;19.50;;;11.48;;
29730;SDS011;16639;51.488;0.152;2023-06-14T10:22:34;19.58;;;8.43;;
29730;SDS011;16639;51.488;0.152;2023-06-14T10:25:10;17.42;;;8.10;;
29730;SDS011;16639;51.488;0.152;2023-06-14T10:27:52;18.50;;;7.45;;
29730;SDS011;16639;51.488;0.152;2023-06-14T10:30:24;12.85;;;7.22;;
29730;SDS011;16639;51.488;0.152;2023-06-14T10:33:04;13.90;;;7.57;;
29730;SDS011;16639;51.488;0.152;2023-06-14T10:35:36;26.20;;;8.15;;
29730;SDS011;16639;51.488;0.152;2023-06-14T10:38:11;21.92;;;8.90;;
29730;SDS011;16639;51.488;0.152;2023-06-14T10:40:39;16.52;;;7.57;;
29730;SDS011;16639;51.488;0.152;2023-06-14T10:43:20;15.20;;;8.05;;
29730;SDS011;16639;51.488;0.152;2023-06-14T10:48:48;20.45;;;7.55;;
29730;SDS011;16639;51.488;0.152;2023-06-14T10:51:16;11.30;;;6.70;;
29730;SDS011;16639;51.488;0.152;2023-06-14T10:53:50;19.73;;;7.10;;
29730;SDS011;16639;51.488;0.152;2023-06-14T10:56:27;17.58;;;7.78;;
29730;SDS011;16639;51.488;0.152;2023-06-14T10:58:59;12.50;;;6.93;;
29730;SDS011;16639;51.488;0.152;2023-06-14T11:01:35;14.52;;;7.00;;
29730;SDS011;16639;51.488;0.152;2023-06-14T11:04:08;9.27;;;6.97;;
29730;SDS011;16639;51.488;0.152;2023-06-14T11:12:03;15.95;;;7.75;;
29730;SDS011;16639;51.488;0.152;2023-06-14T11:14:32;15.52;;;7.53;;
29730;SDS011;16639;51.488;0.152;2023-06-14T11:17:00;14.70;;;6.82;;
29730;SDS011;16639;51.488;0.152;2023-06-14T11:19:27;12.77;;;7.20;;
29730;SDS011;16639;51.488;0.152;2023-06-14T11:21:56;22.25;;;7.97;;
29730;SDS011;16639;51.488;0.152;2023-06-14T11:24:23;16.25;;;7.07;;
29730;SDS011;16639;51.488;0.152;2023-06-14T11:26:51;15.30;;;6.95;;
29730;SDS011;16639;51.488;0.152;2023-06-14T11:29:19;17.27;;;7.78;;
29730;SDS011;16639;51.488;0.152;2023-06-14T11:31:47;11.73;;;6.10;;
29730;SDS011;16639;51.488;0.152;2023-06-14T11:34:14;16.13;;;7.15;;
29730;SDS011;16639;51.488;0.152;2023-06-14T11:36:43;21.33;;;7.80;;
29730;SDS011;16639;51.488;0.152;2023-06-14T11:39:10;12.55;;;6.97;;
29730;SDS011;16639;51.488;0.152;2023-06-14T11:41:39;13.60;;;7.28;;
29730;SDS011;16639;51.488;0.152;2023-06-14T11:44:08;15.05;;;7.22;;
29730;SDS011;16639;51.488;0.152;2023-06-14T11:46:36;18.35;;;6.60;;
29730;SDS011;16639;51.488;0.152;2023-06-14T11:49:04;17.60;;;7.80;;
29730;SDS011;16639;51.488;0.152;2023-06-14T11:51:34;13.65;;;7.47;;
29730;SDS011;16639;51.488;0.152;2023-06-14T11:54:02;15.77;;;6.78;;
29730;SDS011;16639;51.488;0.152;2023-06-14T11:56:30;16.02;;;7.95;;
29730;SDS011;16639;51.488;0.152;2023-06-14T11:58:59;14.48;;;7.20;;
29730;SDS011;16639;51.488;0.152;2023-06-14T12:01:35;16.65;;;6.82;;
29730;SDS011;16639;51.488;0.152;2023-06-14T12:04:05;13.32;;;6.63;;
29730;SDS011;16639;51.488;0.152;2023-06-14T12:06:33;16.67;;;7.70;;
29730;SDS011;16639;51.488;0.152;2023-06-14T12:09:03;16.35;;;8.32;;
29730;SDS011;16639;51.488;0.152;2023-06-14T12:11:34;14.45;;;7.10;;
29730;SDS011;16639;51.488;0.152;2023-06-14T12:14:03;18.38;;;7.47;;
29730;SDS011;16639;51.488;0.152;2023-06-14T12:16:32;21.67;;;7.03;;
29730;SDS011;16639;51.488;0.152;2023-06-14T12:19:09;12.90;;;7.28;;
29730;SDS011;16639;51.488;0.152;2023-06-14T12:21:39;16.95;;;6.82;;
29730;SDS011;16639;51.488;0.152;2023-06-14T12:24:08;16.35;;;6.93;;
29730;SDS011;16639;51.488;0.152;2023-06-14T12:26:39;14.75;;;6.75;;
29730;SDS011;16639;51.488;0.152;2023-06-14T12:29:07;13.10;;;7.10;;
29730;SDS011;16639;51.488;0.152;2023-06-14T12:31:35;21.05;;;7.13;;
29730;SDS011;16639;51.488;0.152;2023-06-14T12:34:03;17.13;;;6.72;;
29730;SDS011;16639;51.488;0.152;2023-06-14T12:36:30;15.05;;;6.70;;
29730;SDS011;16639;51.488;0.152;2023-06-14T12:38:59;13.70;;;6.07;;
29730;SDS011;16639;51.488;0.152;2023-06-14T12:41:26;22.13;;;7.03;;
29730;SDS011;16639;51.488;0.152;2023-06-14T12:43:54;12.38;;;6.60;;
29730;SDS011;16639;51.488;0.152;2023-06-14T12:46:22;17.33;;;6.53;;
29730;SDS011;16639;51.488;0.152;2023-06-14T12:48:49;18.98;;;6.57;;
29730;SDS011;16639;51.488;0.152;2023-06-14T12:51:17;15.35;;;8.27;;
29730;SDS011;16639;51.488;0.152;2023-06-14T12:53:44;18.35;;;10.70;;
29730;SDS011;16639;51.488;0.152;2023-06-14T12:56:12;17.27;;;8.82;;
29730;SDS011;16639;51.488;0.152;2023-06-14T12:58:39;17.90;;;6.40;;
29730;SDS011;16639;51.488;0.152;2023-06-14T13:01:07;11.93;;;5.68;;
29730;SDS011;16639;51.488;0.152;2023-06-14T13:03:34;22.60;;;6.18;;
29730;SDS011;16639;51.488;0.152;2023-06-14T13:06:02;23.20;;;6.88;;
29730;SDS011;16639;51.488;0.152;2023-06-14T13:08:31;10.68;;;5.70;;
29730;SDS011;16639;51.488;0.152;2023-06-14T13:10:58;14.45;;;6.35;;
29730;SDS011;16639;51.488;0.152;2023-06-14T13:13:26;12.52;;;6.55;;
29730;SDS011;16639;51.488;0.152;2023-06-14T13:15:53;11.48;;;5.63;;
29730;SDS011;16639;51.488;0.152;2023-06-14T13:18:21;14.88;;;6.38;;
29730;SDS011;16639;51.488;0.152;2023-06-14T13:20:48;13.00;;;6.68;;
29730;SDS011;16639;51.488;0.152;2023-06-14T13:23:16;13.15;;;7.13;;
29730;SDS011;16639;51.488;0.152;2023-06-14T13:25:43;9.90;;;6.28;;
29730;SDS011;16639;51.488;0.152;2023-06-14T13:28:11;12.80;;;6.18;;
29730;SDS011;16639;51.488;0.152;2023-06-14T13:30:38;11.32;;;6.43;;
29730;SDS011;16639;51.488;0.152;2023-06-14T13:33:06;17.58;;;7.00;;
29730;SDS011;16639;51.488;0.152;2023-06-14T13:35:33;9.23;;;5.57;;
29730;SDS011;16639;51.488;0.152;2023-06-14T13:38:01;9.60;;;5.90;;
29730;SDS011;16639;51.488;0.152;2023-06-14T13:40:29;14.13;;;5.75;;
29730;SDS011;16639;51.488;0.152;2023-06-14T13:42:56;13.48;;;6.43;;
29730;SDS011;16639;51.488;0.152;2023-06-14T13:45:24;15.70;;;6.30;;
29730;SDS011;16639;51.488;0.152;2023-06-14T13:47:51;13.43;;;6.80;;
29730;SDS011;16639;51.488;0.152;2023-06-14T13:50:26;20.35;;;6.95;;
29730;SDS011;16639;51.488;0.152;2023-06-14T13:52:53;15.10;;;5.78;;
29730;SDS011;16639;51.488;0.152;2023-06-14T13:55:21;10.63;;;5.97;;
29730;SDS011;16639;51.488;0.152;2023-06-14T13:57:48;11.25;;;5.95;;
29730;SDS011;16639;51.488;0.152;2023-06-14T14:00:16;11.00;;;5.45;;
29730;SDS011;16639;51.488;0.152;2023-06-14T14:02:47;9.80;;;5.65;;
29730;SDS011;16639;51.488;0.152;2023-06-14T14:05:17;14.65;;;6.18;;
29730;SDS011;16639;51.488;0.152;2023-06-14T14:07:45;15.70;;;6.22;;
29730;SDS011;16639;51.488;0.152;2023-06-14T14:10:12;11.52;;;6.05;;
29730;SDS011;16639;51.488;0.152;2023-06-14T14:12:40;12.88;;;6.80;;
29730;SDS011;16639;51.488;0.152;2023-06-14T14:15:08;23.55;;;6.13;;
29730;SDS011;16639;51.488;0.152;2023-06-14T14:17:40;11.57;;;5.82;;
29730;SDS011;16639;51.488;0.152;2023-06-14T14:20:08;12.23;;;5.72;;
29730;SDS011;16639;51.488;0.152;2023-06-14T14:22:38;11.52;;;6.35;;
29730;SDS011;16639;51.488;0.152;2023-06-14T14:25:07;14.15;;;6.80;;
29730;SDS011;16639;51.488;0.152;2023-06-14T14:27:35;8.48;;;4.88;;
29730;SDS011;16639;51.488;0.152;2023-06-14T14:30:03;10.13;;;6.13;;
29730;SDS011;16639;51.488;0.152;2023-06-14T14:32:31;15.00;;;4.80;;
29730;SDS011;16639;51.488;0.152;2023-06-14T14:34:58;22.00;;;5.72;;
29730;SDS011;16639;51.488;0.152;2023-06-14T14:37:26;12.55;;;5.97;;
29730;SDS011;16639;51.488;0.152;2023-06-14T14:39:53;11.27;;;5.95;;
29730;SDS011;16639;51.488;0.152;2023-06-14T14:42:23;9.02;;;5.30;;
29730;SDS011;16639;51.488;0.152;2023-06-14T14:44:53;15.10;;;5.63;;
29730;SDS011;16639;51.488;0.152;2023-06-14T14:47:20;11.23;;;5.68;;
29730;SDS011;16639;51.488;0.152;2023-06-14T14:49:48;18.27;;;5.82;;
29730;SDS011;16639;51.488;0.152;2023-06-14T14:52:15;14.60;;;6.85;;
29730;SDS011;16639;51.488;0.152;2023-06-14T14:54:50;8.27;;;5.10;;
29730;SDS011;16639;51.488;0.152;2023-06-14T14:57:18;12.00;;;5.03;;
29730;SDS011;16639;51.488;0.152;2023-06-14T14:59:46;16.00;;;5.57;;
29730;SDS011;16639;51.488;0.152;2023-06-14T15:02:13;14.10;;;4.95;;
29730;SDS011;16639;51.488;0.152;2023-06-14T15:04:40;19.90;;;6.53;;
29730;SDS011;16639;51.488;0.152;2023-06-14T15:07:08;11.77;;;5.30;;
29730;SDS011;16639;51.488;0.152;2023-06-14T15:09:37;10.07;;;5.30;;
29730;SDS011;16639;51.488;0.152;2023-06-14T15:12:05;10.57;;;5.72;;
29730;SDS011;16639;51.488;0.152;2023-06-14T15:14:34;12.45;;;5.05;;
29730;SDS011;16639;51.488;0.152;2023-06-14T15:17:01;7.15;;;5.03;;
29730;SDS011;16639;51.488;0.152;2023-06-14T15:19:32;8.27;;;4.75;;
29730;SDS011;16639;51.488;0.152;2023-06-14T15:22:00;12.48;;;5.80;;
29730;SDS011;16639;51.488;0.152;2023-06-14T15:24:29;14.63;;;4.40;;
29730;SDS011;16639;51.488;0.152;2023-06-14T15:27:10;13.82;;;5.20;;
29730;SDS011;16639;51.488;0.152;2023-06-14T15:29:41;12.48;;;5.40;;
29730;SDS011;16639;51.488;0.152;2023-06-14T15:32:09;8.88;;;4.95;;
29730;SDS011;16639;51.488;0.152;2023-06-14T15:34:37;12.73;;;5.22;;
29730;SDS011;16639;51.488;0.152;2023-06-14T15:37:06;12.25;;;5.07;;
29730;SDS011;16639;51.488;0.152;2023-06-14T15:39:34;10.32;;;4.78;;
29730;SDS011;16639;51.488;0.152;2023-06-14T15:42:02;10.48;;;4.30;;
29730;SDS011;16639;51.488;0.152;2023-06-14T15:44:30;7.05;;;4.70;;
29730;SDS011;16639;51.488;0.152;2023-06-14T15:46:57;10.38;;;4.95;;
29730;SDS011;16639;51.488;0.152;2023-06-14T15:49:25;9.52;;;5.32;;
29730;SDS011;16639;51.488;0.152;2023-06-14T15:51:52;11.63;;;5.80;;
29730;SDS011;16639;51.488;0.152;2023-06-14T15:54:20;12.88;;;4.88;;
29730;SDS011;16639;51.488;0.152;2023-06-14T15:56:48;8.52;;;4.95;;
29730;SDS011;16639;51.488;0.152;2023-06-14T15:59:16;15.00;;;5.32;;
29730;SDS011;16639;51.488;0.152;2023-06-14T16:01:43;18.55;;;4.80;;
29730;SDS011;16639;51.488;0.152;2023-06-14T16:04:11;13.23;;;4.47;;
29730;SDS011;16639;51.488;0.152;2023-06-14T16:06:39;11.05;;;5.00;;
29730;SDS011;16639;51.488;0.152;2023-06-14T16:09:06;11.57;;;4.93;;
29730;SDS011;16639;51.488;0.152;2023-06-14T16:11:34;9.48;;;4.60;;
29730;SDS011;16639;51.488;0.152;2023-06-14T16:14:01;8.10;;;4.78;;
29730;SDS011;16639;51.488;0.152;2023-06-14T16:16:28;15.32;;;4.72;;
29730;SDS011;16639;51.488;0.152;2023-06-14T16:18:56;6.60;;;4.30;;
29730;SDS011;16639;51.488;0.152;2023-06-14T16:21:24;8.05;;;4.80;;
29730;SDS011;16639;51.488;0.152;2023-06-14T16:23:53;14.07;;;4.63;;
29730;SDS011;16639;51.488;0.152;2023-06-14T16:26:20;8.23;;;4.45;;
29730;SDS011;16639;51.488;0.152;2023-06-14T16:28:50;17.98;;;5.13;;
29730;SDS011;16639;51.488;0.152;2023-06-14T16:31:21;10.90;;;4.32;;
29730;SDS011;16639;51.488;0.152;2023-06-14T16:33:49;10.65;;;5.40;;
29730;SDS011;16639;51.488;0.152;2023-06-14T16:36:22;8.07;;;4.40;;
29730;SDS011;16639;51.488;0.152;2023-06-14T16:38:50;8.30;;;5.00;;
29730;SDS011;16639;51.488;0.152;2023-06-14T16:41:17;8.10;;;4.60;;
29730;SDS011;16639;51.488;0.152;2023-06-14T16:43:45;10.52;;;4.80;;
29730;SDS011;16639;51.488;0.152;2023-06-14T16:46:13;9.40;;;4.53;;
29730;SDS011;16639;51.488;0.152;2023-06-14T16:48:41;7.03;;;4.45;;
29730;SDS011;16639;51.488;0.152;2023-06-14T16:51:08;7.53;;;3.97;;
29730;SDS011;16639;51.488;0.152;2023-06-14T16:53:36;11.00;;;4.55;;
29730;SDS011;16639;51.488;0.152;2023-06-14T16:56:03;6.70;;;4.30;;
29730;SDS011;16639;51.488;0.152;2023-06-14T16:58:33;8.10;;;4.13;;
29730;SDS011;16639;51.488;0.152;2023-06-14T17:01:00;6.95;;;4.60;;
29730;SDS011;16639;51.488;0.152;2023-06-14T17:03:28;9.25;;;3.42;;
29730;SDS011;16639;51.488;0.152;2023-06-14T17:05:56;11.13;;;4.25;;
29730;SDS011;16639;51.488;0.152;2023-06-14T17:08:24;6.95;;;3.95;;
29730;SDS011;16639;51.488;0.152;2023-06-14T17:10:52;12.30;;;4.22;;
29730;SDS011;16639;51.488;0.152;2023-06-14T17:13:20;5.85;;;4.22;;
29730;SDS011;16639;51.488;0.152;2023-06-14T17:15:48;10.38;;;3.95;;
29730;SDS011;16639;51.488;0.152;2023-06-14T17:18:16;11.80;;;4.50;;
29730;SDS011;16639;51.488;0.152;2023-06-14T17:20:43;7.03;;;4.40;;
29730;SDS011;16639;51.488;0.152;2023-06-14T17:23:12;9.48;;;3.80;;
29730;SDS011;16639;51.488;0.152;2023-06-14T17:25:40;8.18;;;4.00;;
29730;SDS011;16639;51.488;0.152;2023-06-14T17:28:07;10.55;;;4.35;;
29730;SDS011;16639;51.488;0.152;2023-06-14T17:30:34;7.60;;;3.45;;
29730;SDS011;16639;51.488;0.152;2023-06-14T17:33:02;8.00;;;4.53;;
29730;SDS011;16639;51.488;0.152;2023-06-14T17:35:39;10.48;;;4.07;;
29730;SDS011;16639;51.488;0.152;2023-06-14T17:38:07;11.80;;;4.13;;
29730;SDS011;16639;51.488;0.152;2023-06-14T17:40:34;10.02;;;3.65;;
29730;SDS011;16639;51.488;0.152;2023-06-14T17:43:15;11.23;;;4.35;;